Flight Training


We provide structured training required to obtain a pilots certificate ranging from a Private Pilot up to ATP flying for the major airlines.

If your desire to fly is for personal pleasure the first step is to find a professional FAA licensed flight instructor to begin your journey.

The one-hour introductory flight with an instructor lasts one hour and features a log book and a six-month subscription to Flight Training magazine. After flying you to the training area, your instructor will let you test the controls. Call us now

 

Aviation Weather

Available data for KLDJ from the past 2 hours
LINDEN, NJ
Metar
KLDJ 231415Z AUTO 32010G16KT 10SM CLR 21/09 A2991 RMK AO2 T02070089

14:15 UTC

Wind: 320° 10kt

Visibility: 10 SM

Sky:

Temp: 21 deg C / 69.8 deg F

Dewpoint: 9 deg C / 48.2 deg F

Pressure: 29.91 inHg


Available data for KEWR from the past hour
NEWARK, NJ
TAF
KEWR 231134Z 2312/2418 27008KT P6SM SKC FM231500 29013G20KT P6SM FEW050 FM240000 30010KT P6SM SKC FM240300 30005KT P6SM FEW250 FM241500 26006KT P6SM BKN250

Our planes

Some of our students